sensor_id;sensor_type;location;lat;lon;timestamp;P1;durP1;ratioP1;P2;durP2;ratioP2
13368;SDS011;6753;52.520;13.450;2024-01-06T00:00:06;435.48;;;142.35;;
13368;SDS011;6753;52.520;13.450;2024-01-06T00:00:18;426.42;;;140.23;;
13368;SDS011;6753;52.520;13.450;2024-01-06T00:00:31;412.02;;;134.63;;
13368;SDS011;6753;52.520;13.450;2024-01-06T00:00:42;398.88;;;126.38;;
13368;SDS011;6753;52.520;13.450;2024-01-06T00:00:52;399.70;;;125.82;;
13368;SDS011;6753;52.520;13.450;2024-01-06T00:01:03;406.07;;;126.07;;
13368;SDS011;6753;52.520;13.450;2024-01-06T00:01:14;411.10;;;125.72;;
13368;SDS011;6753;52.520;13.450;2024-01-06T00:01:25;415.80;;;126.75;;
13368;SDS011;6753;52.520;13.450;2024-01-06T00:01:35;417.80;;;127.45;;
13368;SDS011;6753;52.520;13.450;2024-01-06T00:01:46;406.80;;;127.20;;
13368;SDS011;6753;52.520;13.450;2024-01-06T00:01:57;396.57;;;123.97;;
13368;SDS011;6753;52.520;13.450;2024-01-06T00:02:09;392.95;;;124.20;;
13368;SDS011;6753;52.520;13.450;2024-01-06T00:02:19;396.45;;;125.22;;
13368;SDS011;6753;52.520;13.450;2024-01-06T00:02:30;401.70;;;126.57;;
13368;SDS011;6753;52.520;13.450;2024-01-06T00:02:41;400.45;;;124.72;;
13368;SDS011;6753;52.520;13.450;2024-01-06T00:02:52;400.63;;;123.65;;
13368;SDS011;6753;52.520;13.450;2024-01-06T00:03:03;391.75;;;122.32;;
13368;SDS011;6753;52.520;13.450;2024-01-06T00:03:13;390.95;;;121.07;;
13368;SDS011;6753;52.520;13.450;2024-01-06T00:03:24;388.02;;;121.80;;
13368;SDS011;6753;52.520;13.450;2024-01-06T00:03:35;397.90;;;126.73;;
13368;SDS011;6753;52.520;13.450;2024-01-06T00:03:46;407.02;;;130.35;;
13368;SDS011;6753;52.520;13.450;2024-01-06T00:03:58;415.45;;;133.13;;
13368;SDS011;6753;52.520;13.450;2024-01-06T00:04:08;418.50;;;134.17;;
13368;SDS011;6753;52.520;13.450;2024-01-06T00:04:19;419.50;;;133.50;;
13368;SDS011;6753;52.520;13.450;2024-01-06T00:04:30;410.55;;;127.90;;
13368;SDS011;6753;52.520;13.450;2024-01-06T00:04:41;394.33;;;121.00;;
13368;SDS011;6753;52.520;13.450;2024-01-06T00:04:51;386.43;;;118.63;;
13368;SDS011;6753;52.520;13.450;2024-01-06T00:05:02;380.38;;;117.40;;
13368;SDS011;6753;52.520;13.450;2024-01-06T00:05:14;372.35;;;115.10;;
13368;SDS011;6753;52.520;13.450;2024-01-06T00:05:24;361.08;;;114.65;;
13368;SDS011;6753;52.520;13.450;2024-01-06T00:05:35;361.83;;;116.53;;
13368;SDS011;6753;52.520;13.450;2024-01-06T00:05:47;368.23;;;117.97;;
13368;SDS011;6753;52.520;13.450;2024-01-06T00:05:59;373.20;;;120.37;;
13368;SDS011;6753;52.520;13.450;2024-01-06T00:06:12;386.50;;;124.85;;
13368;SDS011;6753;52.520;13.450;2024-01-06T00:06:23;397.38;;;128.95;;
13368;SDS011;6753;52.520;13.450;2024-01-06T00:06:34;406.42;;;131.38;;
13368;SDS011;6753;52.520;13.450;2024-01-06T00:06:45;404.92;;;132.20;;
13368;SDS011;6753;52.520;13.450;2024-01-06T00:06:56;404.17;;;131.17;;
13368;SDS011;6753;52.520;13.450;2024-01-06T00:07:06;399.20;;;127.57;;
13368;SDS011;6753;52.520;13.450;2024-01-06T00:07:17;408.10;;;129.30;;
13368;SDS011;6753;52.520;13.450;2024-01-06T00:07:28;420.50;;;132.25;;
13368;SDS011;6753;52.520;13.450;2024-01-06T00:07:40;422.70;;;134.50;;
13368;SDS011;6753;52.520;13.450;2024-01-06T00:07:50;420.65;;;133.70;;
13368;SDS011;6753;52.520;13.450;2024-01-06T00:08:01;415.00;;;132.82;;
13368;SDS011;6753;52.520;13.450;2024-01-06T00:08:12;411.92;;;132.90;;
13368;SDS011;6753;52.520;13.450;2024-01-06T00:08:23;402.20;;;130.50;;
13368;SDS011;6753;52.520;13.450;2024-01-06T00:08:33;395.77;;;127.35;;
13368;SDS011;6753;52.520;13.450;2024-01-06T00:08:44;404.90;;;128.98;;
13368;SDS011;6753;52.520;13.450;2024-01-06T00:08:55;408.30;;;129.43;;
13368;SDS011;6753;52.520;13.450;2024-01-06T00:09:06;410.23;;;130.35;;
13368;SDS011;6753;52.520;13.450;2024-01-06T00:09:17;408.52;;;128.52;;
13368;SDS011;6753;52.520;13.450;2024-01-06T00:09:28;408.80;;;125.95;;
13368;SDS011;6753;52.520;13.450;2024-01-06T00:09:39;403.42;;;125.93;;
13368;SDS011;6753;52.520;13.450;2024-01-06T00:09:50;411.27;;;131.80;;
13368;SDS011;6753;52.520;13.450;2024-01-06T00:10:01;396.83;;;125.53;;
13368;SDS011;6753;52.520;13.450;2024-01-06T00:10:12;392.27;;;122.70;;
13368;SDS011;6753;52.520;13.450;2024-01-06T00:10:23;407.45;;;128.35;;
13368;SDS011;6753;52.520;13.450;2024-01-06T00:10:34;423.77;;;136.02;;
13368;SDS011;6753;52.520;13.450;2024-01-06T00:10:44;430.42;;;138.20;;
13368;SDS011;6753;52.520;13.450;2024-01-06T00:10:55;430.40;;;138.73;;
13368;SDS011;6753;52.520;13.450;2024-01-06T00:11:07;428.10;;;138.05;;
13368;SDS011;6753;52.520;13.450;2024-01-06T00:11:18;409.48;;;133.45;;
13368;SDS011;6753;52.520;13.450;2024-01-06T00:11:29;387.90;;;124.80;;
13368;SDS011;6753;52.520;13.450;2024-01-06T00:11:40;382.95;;;122.20;;
13368;SDS011;6753;52.520;13.450;2024-01-06T00:11:51;408.50;;;135.52;;
13368;SDS011;6753;52.520;13.450;2024-01-06T00:12:02;420.93;;;141.67;;
13368;SDS011;6753;52.520;13.450;2024-01-06T00:12:13;428.15;;;143.10;;
13368;SDS011;6753;52.520;13.450;2024-01-06T00:12:23;431.70;;;143.88;;
13368;SDS011;6753;52.520;13.450;2024-01-06T00:12:34;423.50;;;142.43;;
13368;SDS011;6753;52.520;13.450;2024-01-06T00:12:45;393.75;;;128.90;;
13368;SDS011;6753;52.520;13.450;2024-01-06T00:12:58;390.40;;;126.15;;
13368;SDS011;6753;52.520;13.450;2024-01-06T00:13:09;408.85;;;130.60;;
13368;SDS011;6753;52.520;13.450;2024-01-06T00:13:20;412.52;;;134.25;;
13368;SDS011;6753;52.520;13.450;2024-01-06T00:13:31;418.42;;;135.48;;
13368;SDS011;6753;52.520;13.450;2024-01-06T00:13:41;422.37;;;136.03;;
13368;SDS011;6753;52.520;13.450;2024-01-06T00:13:52;414.30;;;133.90;;
13368;SDS011;6753;52.520;13.450;2024-01-06T00:14:03;397.50;;;126.70;;
13368;SDS011;6753;52.520;13.450;2024-01-06T00:14:14;399.60;;;124.90;;
13368;SDS011;6753;52.520;13.450;2024-01-06T00:14:24;402.48;;;123.78;;
13368;SDS011;6753;52.520;13.450;2024-01-06T00:14:35;400.52;;;124.47;;
13368;SDS011;6753;52.520;13.450;2024-01-06T00:14:46;398.15;;;123.53;;
13368;SDS011;6753;52.520;13.450;2024-01-06T00:14:58;402.60;;;123.25;;
13368;SDS011;6753;52.520;13.450;2024-01-06T00:15:09;397.75;;;122.30;;
13368;SDS011;6753;52.520;13.450;2024-01-06T00:15:20;390.92;;;121.60;;
13368;SDS011;6753;52.520;13.450;2024-01-06T00:15:31;386.52;;;120.25;;
13368;SDS011;6753;52.520;13.450;2024-01-06T00:15:42;388.48;;;119.45;;
13368;SDS011;6753;52.520;13.450;2024-01-06T00:15:53;388.17;;;119.73;;
13368;SDS011;6753;52.520;13.450;2024-01-06T00:16:06;379.63;;;117.38;;
13368;SDS011;6753;52.520;13.450;2024-01-06T00:16:17;371.38;;;114.88;;
13368;SDS011;6753;52.520;13.450;2024-01-06T00:16:28;366.00;;;114.28;;
13368;SDS011;6753;52.520;13.450;2024-01-06T00:16:39;366.07;;;114.90;;
13368;SDS011;6753;52.520;13.450;2024-01-06T00:16:50;370.63;;;116.72;;
13368;SDS011;6753;52.520;13.450;2024-01-06T00:17:01;386.90;;;123.95;;
13368;SDS011;6753;52.520;13.450;2024-01-06T00:17:12;393.77;;;127.00;;
13368;SDS011;6753;52.520;13.450;2024-01-06T00:17:23;399.63;;;127.23;;
13368;SDS011;6753;52.520;13.450;2024-01-06T00:17:34;406.48;;;127.85;;
13368;SDS011;6753;52.520;13.450;2024-01-06T00:17:44;417.20;;;131.98;;
13368;SDS011;6753;52.520;13.450;2024-01-06T00:17:55;402.33;;;127.68;;
13368;SDS011;6753;52.520;13.450;2024-01-06T00:18:06;393.90;;;124.53;;
13368;SDS011;6753;52.520;13.450;2024-01-06T00:18:17;396.98;;;124.10;;
13368;SDS011;6753;52.520;13.450;2024-01-06T00:18:28;390.50;;;123.72;;
13368;SDS011;6753;52.520;13.450;2024-01-06T00:18:39;390.27;;;124.03;;
13368;SDS011;6753;52.520;13.450;2024-01-06T00:18:50;387.70;;;121.75;;
13368;SDS011;6753;52.520;13.450;2024-01-06T00:19:01;385.92;;;120.78;;
13368;SDS011;6753;52.520;13.450;2024-01-06T00:19:12;382.40;;;120.65;;
13368;SDS011;6753;52.520;13.450;2024-01-06T00:19:25;384.92;;;122.97;;
13368;SDS011;6753;52.520;13.450;2024-01-06T00:19:37;384.98;;;122.95;;
13368;SDS011;6753;52.520;13.450;2024-01-06T00:19:48;392.08;;;125.78;;
13368;SDS011;6753;52.520;13.450;2024-01-06T00:20:01;403.77;;;129.45;;
13368;SDS011;6753;52.520;13.450;2024-01-06T00:20:12;413.10;;;132.93;;
13368;SDS011;6753;52.520;13.450;2024-01-06T00:20:23;420.02;;;135.30;;
13368;SDS011;6753;52.520;13.450;2024-01-06T00:20:34;416.42;;;135.68;;
13368;SDS011;6753;52.520;13.450;2024-01-06T00:20:44;405.23;;;131.43;;
13368;SDS011;6753;52.520;13.450;2024-01-06T00:20:55;395.95;;;127.55;;
13368;SDS011;6753;52.520;13.450;2024-01-06T00:21:07;377.25;;;122.03;;
13368;SDS011;6753;52.520;13.450;2024-01-06T00:21:19;368.83;;;116.53;;
13368;SDS011;6753;52.520;13.450;2024-01-06T00:21:30;376.33;;;116.40;;
13368;SDS011;6753;52.520;13.450;2024-01-06T00:21:40;381.60;;;117.90;;
13368;SDS011;6753;52.520;13.450;2024-01-06T00:21:51;366.77;;;114.18;;
13368;SDS011;6753;52.520;13.450;2024-01-06T00:22:02;365.10;;;112.82;;
13368;SDS011;6753;52.520;13.450;2024-01-06T00:22:13;360.27;;;111.10;;
13368;SDS011;6753;52.520;13.450;2024-01-06T00:22:24;363.23;;;111.50;;
13368;SDS011;6753;52.520;13.450;2024-01-06T00:22:34;360.73;;;111.30;;
13368;SDS011;6753;52.520;13.450;2024-01-06T00:22:45;384.25;;;118.97;;
13368;SDS011;6753;52.520;13.450;2024-01-06T00:22:57;414.33;;;128.85;;
13368;SDS011;6753;52.520;13.450;2024-01-06T00:23:09;434.60;;;136.30;;
13368;SDS011;6753;52.520;13.450;2024-01-06T00:23:19;452.10;;;144.05;;
13368;SDS011;6753;52.520;13.450;2024-01-06T00:23:30;450.45;;;146.75;;
13368;SDS011;6753;52.520;13.450;2024-01-06T00:23:41;437.02;;;143.90;;
13368;SDS011;6753;52.520;13.450;2024-01-06T00:23:52;425.50;;;137.13;;
13368;SDS011;6753;52.520;13.450;2024-01-06T00:24:03;420.58;;;133.80;;
13368;SDS011;6753;52.520;13.450;2024-01-06T00:24:14;421.40;;;133.60;;
13368;SDS011;6753;52.520;13.450;2024-01-06T00:24:25;423.07;;;133.53;;
13368;SDS011;6753;52.520;13.450;2024-01-06T00:24:35;432.20;;;134.95;;
13368;SDS011;6753;52.520;13.450;2024-01-06T00:24:47;429.52;;;135.60;;
13368;SDS011;6753;52.520;13.450;2024-01-06T00:24:58;438.75;;;139.15;;
13368;SDS011;6753;52.520;13.450;2024-01-06T00:25:09;439.38;;;142.60;;
13368;SDS011;6753;52.520;13.450;2024-01-06T00:25:20;443.70;;;143.95;;
13368;SDS011;6753;52.520;13.450;2024-01-06T00:25:31;443.33;;;143.70;;
13368;SDS011;6753;52.520;13.450;2024-01-06T00:25:42;450.88;;;147.20;;
13368;SDS011;6753;52.520;13.450;2024-01-06T00:25:52;450.98;;;147.48;;
13368;SDS011;6753;52.520;13.450;2024-01-06T00:26:03;453.15;;;147.02;;
13368;SDS011;6753;52.520;13.450;2024-01-06T00:26:14;455.57;;;147.27;;
13368;SDS011;6753;52.520;13.450;2024-01-06T00:26:25;452.90;;;146.13;;
13368;SDS011;6753;52.520;13.450;2024-01-06T00:26:36;447.30;;;144.85;;
13368;SDS011;6753;52.520;13.450;2024-01-06T00:26:47;442.00;;;142.40;;
13368;SDS011;6753;52.520;13.450;2024-01-06T00:26:58;440.75;;;141.70;;
13368;SDS011;6753;52.520;13.450;2024-01-06T00:27:08;436.48;;;141.52;;
13368;SDS011;6753;52.520;13.450;2024-01-06T00:27:23;433.20;;;140.57;;
13368;SDS011;6753;52.520;13.450;2024-01-06T00:27:34;433.25;;;140.35;;
13368;SDS011;6753;52.520;13.450;2024-01-06T00:27:45;436.20;;;140.10;;
13368;SDS011;6753;52.520;13.450;2024-01-06T00:27:55;443.05;;;142.70;;
13368;SDS011;6753;52.520;13.450;2024-01-06T00:28:06;444.17;;;142.57;;
13368;SDS011;6753;52.520;13.450;2024-01-06T00:28:17;447.23;;;144.45;;
13368;SDS011;6753;52.520;13.450;2024-01-06T00:28:27;449.83;;;146.35;;
13368;SDS011;6753;52.520;13.450;2024-01-06T00:28:39;445.20;;;145.80;;
13368;SDS011;6753;52.520;13.450;2024-01-06T00:28:50;438.00;;;143.45;;
13368;SDS011;6753;52.520;13.450;2024-01-06T00:29:01;440.05;;;143.57;;
13368;SDS011;6753;52.520;13.450;2024-01-06T00:29:11;438.25;;;142.60;;
13368;SDS011;6753;52.520;13.450;2024-01-06T00:29:22;435.77;;;140.33;;
13368;SDS011;6753;52.520;13.450;2024-01-06T00:29:33;440.40;;;140.73;;
13368;SDS011;6753;52.520;13.450;2024-01-06T00:29:44;442.90;;;142.55;;
13368;SDS011;6753;52.520;13.450;2024-01-06T00:29:55;442.92;;;143.27;;
13368;SDS011;6753;52.520;13.450;2024-01-06T00:30:06;441.40;;;142.67;;
13368;SDS011;6753;52.520;13.450;2024-01-06T00:30:18;443.48;;;144.43;;
13368;SDS011;6753;52.520;13.450;2024-01-06T00:30:29;445.30;;;146.00;;
13368;SDS011;6753;52.520;13.450;2024-01-06T00:30:39;443.10;;;145.80;;
13368;SDS011;6753;52.520;13.450;2024-01-06T00:30:50;445.02;;;147.02;;
13368;SDS011;6753;52.520;13.450;2024-01-06T00:31:01;447.83;;;148.05;;
13368;SDS011;6753;52.520;13.450;2024-01-06T00:31:12;449.73;;;149.60;;
13368;SDS011;6753;52.520;13.450;2024-01-06T00:31:23;452.55;;;149.40;;
13368;SDS011;6753;52.520;13.450;2024-01-06T00:31:34;449.53;;;148.03;;
13368;SDS011;6753;52.520;13.450;2024-01-06T00:31:44;453.65;;;148.10;;
13368;SDS011;6753;52.520;13.450;2024-01-06T00:31:56;453.40;;;148.40;;
13368;SDS011;6753;52.520;13.450;2024-01-06T00:32:07;454.08;;;149.20;;
13368;SDS011;6753;52.520;13.450;2024-01-06T00:32:18;452.40;;;148.73;;
13368;SDS011;6753;52.520;13.450;2024-01-06T00:32:29;452.48;;;149.38;;
13368;SDS011;6753;52.520;13.450;2024-01-06T00:32:40;456.13;;;150.80;;
13368;SDS011;6753;52.520;13.450;2024-01-06T00:32:50;456.58;;;151.40;;
13368;SDS011;6753;52.520;13.450;2024-01-06T00:33:01;456.33;;;152.55;;
13368;SDS011;6753;52.520;13.450;2024-01-06T00:33:12;458.67;;;152.20;;
13368;SDS011;6753;52.520;13.450;2024-01-06T00:33:23;464.70;;;153.73;;
13368;SDS011;6753;52.520;13.450;2024-01-06T00:33:34;468.17;;;154.20;;
13368;SDS011;6753;52.520;13.450;2024-01-06T00:33:45;469.27;;;155.10;;
13368;SDS011;6753;52.520;13.450;2024-01-06T00:33:56;467.13;;;152.93;;
13368;SDS011;6753;52.520;13.450;2024-01-06T00:34:10;469.45;;;154.85;;
13368;SDS011;6753;52.520;13.450;2024-01-06T00:34:20;469.90;;;154.75;;
13368;SDS011;6753;52.520;13.450;2024-01-06T00:34:31;468.33;;;153.75;;
13368;SDS011;6753;52.520;13.450;2024-01-06T00:34:42;472.10;;;155.70;;
13368;SDS011;6753;52.520;13.450;2024-01-06T00:34:53;477.02;;;157.68;;
13368;SDS011;6753;52.520;13.450;2024-01-06T00:35:04;474.60;;;158.27;;
13368;SDS011;6753;52.520;13.450;2024-01-06T00:35:15;478.10;;;158.20;;
13368;SDS011;6753;52.520;13.450;2024-01-06T00:35:26;475.57;;;159.53;;
13368;SDS011;6753;52.520;13.450;2024-01-06T00:35:37;476.80;;;161.05;;
13368;SDS011;6753;52.520;13.450;2024-01-06T00:35:48;479.88;;;161.48;;
13368;SDS011;6753;52.520;13.450;2024-01-06T00:35:59;483.80;;;162.40;;
13368;SDS011;6753;52.520;13.450;2024-01-06T00:36:11;488.43;;;164.77;;
13368;SDS011;6753;52.520;13.450;2024-01-06T00:36:25;510.35;;;177.85;;
13368;SDS011;6753;52.520;13.450;2024-01-06T00:36:36;514.83;;;181.30;;
13368;SDS011;6753;52.520;13.450;2024-01-06T00:36:46;517.50;;;185.18;;
13368;SDS011;6753;52.520;13.450;2024-01-06T00:36:57;526.40;;;193.40;;
13368;SDS011;6753;52.520;13.450;2024-01-06T00:37:08;540.20;;;203.30;;
13368;SDS011;6753;52.520;13.450;2024-01-06T00:37:19;546.20;;;208.43;;
13368;SDS011;6753;52.520;13.450;2024-01-06T00:37:29;547.78;;;209.90;;
13368;SDS011;6753;52.520;13.450;2024-01-06T00:37:40;551.87;;;212.50;;
13368;SDS011;6753;52.520;13.450;2024-01-06T00:37:52;543.65;;;205.75;;
13368;SDS011;6753;52.520;13.450;2024-01-06T00:38:03;536.13;;;200.85;;
13368;SDS011;6753;52.520;13.450;2024-01-06T00:38:14;531.95;;;198.02;;
13368;SDS011;6753;52.520;13.450;2024-01-06T00:38:24;525.43;;;193.20;;
13368;SDS011;6753;52.520;13.450;2024-01-06T00:38:35;525.17;;;191.55;;
13368;SDS011;6753;52.520;13.450;2024-01-06T00:38:46;531.13;;;194.48;;
13368;SDS011;6753;52.520;13.450;2024-01-06T00:38:57;538.95;;;198.38;;
13368;SDS011;6753;52.520;13.450;2024-01-06T00:39:08;538.90;;;195.83;;
13368;SDS011;6753;52.520;13.450;2024-01-06T00:39:19;532.92;;;193.40;;
13368;SDS011;6753;52.520;13.450;2024-01-06T00:39:33;521.88;;;188.48;;
13368;SDS011;6753;52.520;13.450;2024-01-06T00:39:44;520.05;;;188.75;;
13368;SDS011;6753;52.520;13.450;2024-01-06T00:39:55;517.67;;;187.50;;
13368;SDS011;6753;52.520;13.450;2024-01-06T00:40:06;510.48;;;184.52;;
13368;SDS011;6753;52.520;13.450;2024-01-06T00:40:17;523.00;;;191.43;;
13368;SDS011;6753;52.520;13.450;2024-01-06T00:40:29;528.30;;;196.15;;
13368;SDS011;6753;52.520;13.450;2024-01-06T00:40:42;535.85;;;200.20;;
13368;SDS011;6753;52.520;13.450;2024-01-06T00:40:53;543.63;;;205.13;;
13368;SDS011;6753;52.520;13.450;2024-01-06T00:41:03;555.50;;;212.85;;
13368;SDS011;6753;52.520;13.450;2024-01-06T00:41:14;551.28;;;210.57;;
13368;SDS011;6753;52.520;13.450;2024-01-06T00:41:25;548.00;;;210.40;;
13368;SDS011;6753;52.520;13.450;2024-01-06T00:41:37;547.47;;;208.32;;
13368;SDS011;6753;52.520;13.450;2024-01-06T00:41:47;553.03;;;210.85;;
13368;SDS011;6753;52.520;13.450;2024-01-06T00:41:58;569.55;;;217.40;;
13368;SDS011;6753;52.520;13.450;2024-01-06T00:42:09;585.37;;;225.53;;
13368;SDS011;6753;52.520;13.450;2024-01-06T00:42:19;604.88;;;234.60;;
13368;SDS011;6753;52.520;13.450;2024-01-06T00:42:30;621.10;;;240.23;;
13368;SDS011;6753;52.520;13.450;2024-01-06T00:42:41;628.03;;;243.80;;
13368;SDS011;6753;52.520;13.450;2024-01-06T00:42:52;620.10;;;239.80;;
13368;SDS011;6753;52.520;13.450;2024-01-06T00:43:03;609.95;;;235.57;;
13368;SDS011;6753;52.520;13.450;2024-01-06T00:43:13;607.25;;;235.15;;
13368;SDS011;6753;52.520;13.450;2024-01-06T00:43:25;612.65;;;240.88;;
13368;SDS011;6753;52.520;13.450;2024-01-06T00:43:36;609.87;;;241.07;;
13368;SDS011;6753;52.520;13.450;2024-01-06T00:43:47;617.65;;;248.43;;
13368;SDS011;6753;52.520;13.450;2024-01-06T00:43:57;623.50;;;250.77;;
13368;SDS011;6753;52.520;13.450;2024-01-06T00:44:08;615.77;;;249.70;;
13368;SDS011;6753;52.520;13.450;2024-01-06T00:44:19;606.30;;;242.75;;
13368;SDS011;6753;52.520;13.450;2024-01-06T00:44:30;597.60;;;238.00;;
13368;SDS011;6753;52.520;13.450;2024-01-06T00:44:40;589.70;;;233.05;;
13368;SDS011;6753;52.520;13.450;2024-01-06T00:44:51;583.80;;;226.30;;
13368;SDS011;6753;52.520;13.450;2024-01-06T00:45:02;573.28;;;220.48;;
13368;SDS011;6753;52.520;13.450;2024-01-06T00:45:14;573.17;;;219.25;;
13368;SDS011;6753;52.520;13.450;2024-01-06T00:45:25;571.13;;;216.48;;
13368;SDS011;6753;52.520;13.450;2024-01-06T00:45:37;576.83;;;219.40;;
13368;SDS011;6753;52.520;13.450;2024-01-06T00:45:47;572.78;;;220.98;;
13368;SDS011;6753;52.520;13.450;2024-01-06T00:45:58;569.80;;;222.70;;
13368;SDS011;6753;52.520;13.450;2024-01-06T00:46:09;569.97;;;222.73;;
13368;SDS011;6753;52.520;13.450;2024-01-06T00:46:20;574.08;;;225.00;;
13368;SDS011;6753;52.520;13.450;2024-01-06T00:46:31;584.10;;;233.32;;
13368;SDS011;6753;52.520;13.450;2024-01-06T00:46:41;589.63;;;237.93;;
13368;SDS011;6753;52.520;13.450;2024-01-06T00:46:52;598.25;;;241.43;;
13368;SDS011;6753;52.520;13.450;2024-01-06T00:47:03;602.42;;;245.43;;
13368;SDS011;6753;52.520;13.450;2024-01-06T00:47:14;601.35;;;247.88;;
13368;SDS011;6753;52.520;13.450;2024-01-06T00:47:25;598.70;;;246.18;;
13368;SDS011;6753;52.520;13.450;2024-01-06T00:47:36;590.17;;;242.95;;
13368;SDS011;6753;52.520;13.450;2024-01-06T00:47:49;595.58;;;245.07;;
13368;SDS011;6753;52.520;13.450;2024-01-06T00:48:00;601.28;;;245.00;;
13368;SDS011;6753;52.520;13.450;2024-01-06T00:48:10;608.00;;;244.30;;
13368;SDS011;6753;52.520;13.450;2024-01-06T00:48:21;606.50;;;244.00;;
13368;SDS011;6753;52.520;13.450;2024-01-06T00:48:32;603.97;;;240.05;;
13368;SDS011;6753;52.520;13.450;2024-01-06T00:48:43;602.13;;;237.90;;
13368;SDS011;6753;52.520;13.450;2024-01-06T00:48:53;590.10;;;233.07;;
13368;SDS011;6753;52.520;13.450;2024-01-06T00:49:05;594.10;;;234.73;;
13368;SDS011;6753;52.520;13.450;2024-01-06T00:49:16;594.45;;;234.77;;
13368;SDS011;6753;52.520;13.450;2024-01-06T00:49:27;606.00;;;239.53;;
13368;SDS011;6753;52.520;13.450;2024-01-06T00:49:37;618.72;;;246.55;;
13368;SDS011;6753;52.520;13.450;2024-01-06T00:49:48;623.78;;;250.10;;
13368;SDS011;6753;52.520;13.450;2024-01-06T00:49:59;630.88;;;252.85;;
13368;SDS011;6753;52.520;13.450;2024-01-06T00:50:10;633.53;;;254.67;;
13368;SDS011;6753;52.520;13.450;2024-01-06T00:50:21;626.45;;;252.70;;
13368;SDS011;6753;52.520;13.450;2024-01-06T00:50:31;624.80;;;251.52;;
13368;SDS011;6753;52.520;13.450;2024-01-06T00:50:42;624.05;;;252.18;;
13368;SDS011;6753;52.520;13.450;2024-01-06T00:50:53;625.77;;;251.47;;
13368;SDS011;6753;52.520;13.450;2024-01-06T00:51:04;624.97;;;251.27;;
13368;SDS011;6753;52.520;13.450;2024-01-06T00:51:19;627.58;;;253.52;;
13368;SDS011;6753;52.520;13.450;2024-01-06T00:51:31;630.60;;;255.93;;
13368;SDS011;6753;52.520;13.450;2024-01-06T00:51:41;620.08;;;250.10;;
13368;SDS011;6753;52.520;13.450;2024-01-06T00:51:52;608.70;;;247.15;;
13368;SDS011;6753;52.520;13.450;2024-01-06T00:52:03;605.53;;;245.50;;
13368;SDS011;6753;52.520;13.450;2024-01-06T00:52:14;598.50;;;239.20;;
13368;SDS011;6753;52.520;13.450;2024-01-06T00:52:25;593.50;;;234.82;;
13368;SDS011;6753;52.520;13.450;2024-01-06T00:52:36;594.17;;;233.63;;
13368;SDS011;6753;52.520;13.450;2024-01-06T00:52:46;596.88;;;231.82;;
13368;SDS011;6753;52.520;13.450;2024-01-06T00:52:57;599.35;;;231.18;;
13368;SDS011;6753;52.520;13.450;2024-01-06T00:53:08;597.67;;;233.53;;
13368;SDS011;6753;52.520;13.450;2024-01-06T00:53:21;598.40;;;237.18;;
13368;SDS011;6753;52.520;13.450;2024-01-06T00:53:32;596.90;;;236.15;;
13368;SDS011;6753;52.520;13.450;2024-01-06T00:53:43;595.17;;;235.27;;
13368;SDS011;6753;52.520;13.450;2024-01-06T00:53:53;593.27;;;235.33;;
13368;SDS011;6753;52.520;13.450;2024-01-06T00:54:04;594.78;;;235.30;;
13368;SDS011;6753;52.520;13.450;2024-01-06T00:54:15;592.95;;;232.38;;
13368;SDS011;6753;52.520;13.450;2024-01-06T00:54:25;595.35;;;233.20;;
13368;SDS011;6753;52.520;13.450;2024-01-06T00:54:36;594.40;;;234.60;;
13368;SDS011;6753;52.520;13.450;2024-01-06T00:54:47;592.80;;;236.20;;
13368;SDS011;6753;52.520;13.450;2024-01-06T00:54:58;598.67;;;240.48;;
13368;SDS011;6753;52.520;13.450;2024-01-06T00:55:09;599.65;;;241.57;;
13368;SDS011;6753;52.520;13.450;2024-01-06T00:55:20;600.20;;;242.02;;
13368;SDS011;6753;52.520;13.450;2024-01-06T00:55:31;604.05;;;244.80;;
13368;SDS011;6753;52.520;13.450;2024-01-06T00:55:42;608.33;;;244.40;;
13368;SDS011;6753;52.520;13.450;2024-01-06T00:55:52;606.70;;;245.30;;
13368;SDS011;6753;52.520;13.450;2024-01-06T00:56:03;605.50;;;242.05;;
13368;SDS011;6753;52.520;13.450;2024-01-06T00:56:14;609.20;;;243.27;;
13368;SDS011;6753;52.520;13.450;2024-01-06T00:56:25;617.30;;;246.43;;
13368;SDS011;6753;52.520;13.450;2024-01-06T00:56:37;618.78;;;249.40;;
13368;SDS011;6753;52.520;13.450;2024-01-06T00:56:47;619.23;;;249.80;;
13368;SDS011;6753;52.520;13.450;2024-01-06T00:56:58;623.08;;;252.25;;
13368;SDS011;6753;52.520;13.450;2024-01-06T00:57:10;620.85;;;252.30;;
13368;SDS011;6753;52.520;13.450;2024-01-06T00:57:21;612.50;;;247.53;;
13368;SDS011;6753;52.520;13.450;2024-01-06T00:57:34;603.40;;;243.70;;
13368;SDS011;6753;52.520;13.450;2024-01-06T00:57:44;599.80;;;241.40;;
13368;SDS011;6753;52.520;13.450;2024-01-06T00:57:55;599.15;;;239.23;;
13368;SDS011;6753;52.520;13.450;2024-01-06T00:58:06;597.90;;;236.77;;
13368;SDS011;6753;52.520;13.450;2024-01-06T00:58:18;601.70;;;237.20;;
13368;SDS011;6753;52.520;13.450;2024-01-06T00:58:29;609.90;;;238.95;;
13368;SDS011;6753;52.520;13.450;2024-01-06T00:58:40;615.10;;;239.47;;
13368;SDS011;6753;52.520;13.450;2024-01-06T00:58:51;614.40;;;239.68;;
13368;SDS011;6753;52.520;13.450;2024-01-06T00:59:03;611.58;;;240.98;;
13368;SDS011;6753;52.520;13.450;2024-01-06T00:59:13;613.53;;;243.57;;
13368;SDS011;6753;52.520;13.450;2024-01-06T00:59:24;610.00;;;245.05;;
13368;SDS011;6753;52.520;13.450;2024-01-06T00:59:35;608.10;;;247.33;;
13368;SDS011;6753;52.520;13.450;2024-01-06T00:59:46;609.58;;;249.63;;
13368;SDS011;6753;52.520;13.450;2024-01-06T00:59:56;614.28;;;252.90;;
13368;SDS011;6753;52.520;13.450;2024-01-06T01:00:07;624.42;;;261.05;;
13368;SDS011;6753;52.520;13.450;2024-01-06T01:00:19;631.47;;;264.10;;
13368;SDS011;6753;52.520;13.450;2024-01-06T01:00:30;639.42;;;268.42;;
13368;SDS011;6753;52.520;13.450;2024-01-06T01:00:40;645.00;;;273.70;;
13368;SDS011;6753;52.520;13.450;2024-01-06T01:00:51;653.67;;;281.63;;
13368;SDS011;6753;52.520;13.450;2024-01-06T01:01:02;663.80;;;289.47;;
13368;SDS011;6753;52.520;13.450;2024-01-06T01:01:14;671.28;;;295.80;;
13368;SDS011;6753;52.520;13.450;2024-01-06T01:01:25;677.95;;;302.30;;
13368;SDS011;6753;52.520;13.450;2024-01-06T01:01:36;678.35;;;304.35;;
13368;SDS011;6753;52.520;13.450;2024-01-06T01:01:46;684.37;;;303.83;;
13368;SDS011;6753;52.520;13.450;2024-01-06T01:01:57;674.40;;;300.02;;
13368;SDS011;6753;52.520;13.450;2024-01-06T01:02:08;670.92;;;296.02;;
13368;SDS011;6753;52.520;13.450;2024-01-06T01:02:18;672.28;;;295.13;;
13368;SDS011;6753;52.520;13.450;2024-01-06T01:02:29;680.93;;;295.10;;
13368;SDS011;6753;52.520;13.450;2024-01-06T01:02:40;693.30;;;301.25;;